Accueil
METAR-TAF:

METAR-TAF

Aéroports :

Loreto, Mexique

latitude: 26-01N, longitude: 111-21W, altitude: 15 m

Observation

Le bulletin a été fait il y a 1 heure et 9 minutes, à 12:44 UTC
Vent calme
Température 28°C
Humidité 79%
Pression 1010 hPa
Visibilité: 12.9 km
Quelques nuages à une hauteur de 24000 ft

METAR: MMLT 211244Z 00000KT 8SM FEW240 28/24 A2983 RMK 8/001 HZY RTS

Heure: 07:53 (13:53 UTC)

Prévision

Le bulletin a été fait il y a 9 heures et 0 minutes, à 04:53 UTC
Prévision valable du 21 à 06 UTC au 22 à 06 UTC
Vent 5 kt de nord/nord-est
Visibilité: 10 km
Nuages épars à une hauteur de 10000 ft
A partir de 21 à 1900 UTC
Vent 10 kt de nord-est
Visibilité: 10 km
Nuages épars à une hauteur de 2000 ft, Cumulonimbus.
A partir de 22 à 0100 UTC
Vent 5 kt de nord/nord-est
Visibilité: 10 km
Nuages épars à une hauteur de 3000 ft

TAF: MMLT 210453Z 2106/2206 03005KT P6SM SCT100 FM211900 05010KT P6SM SCT020CB FM220100 03005KT P6SM SCT030

Observations et prévisions météorologiques de plus de 4000 aéroports (messages METAR et TAF).

Les stations disponibles sont représentées par des disques jaunes et rouges sur la carte.

Passer la souris dessus pour voir le nom de la station.

Cliquer dessus pour voir les observations et prévisions météorologiques.

Pour changer de carte: cliquez sur les boutons verts avec une croix noire pour zoomer, sur le bouton vert avec un tiret pour effectuer un zoom arrière, ou sur les flèches vertes pour les cartes adjacentes.


METAR-TAF: